Time;durP1;ratioP1;P1;durP2;ratioP2;P2;SDS_P1;SDS_P2;PMS_P1;PMS_P2;Temp;Humidity;BMP_temperature;BMP_pressure;BME280_temperature;BME280_humidity;BME280_pressure;Samples;Min_cycle;Max_cycle;Signal;HPM_P1;HPM_P2
2023/01/31 00:01:19;;;;;;;3.80;1.25;;;17.80;1.00;;;;;;5012825;28;20115;-40
2023/01/31 00:03:47;;;;;;;4.32;0.98;;;17.80;1.00;;;;;;5015683;28;20409;-39
2023/01/31 00:06:21;;;;;;;6.35;1.80;;;17.70;1.00;;;;;;5015563;28;20072;-40
2023/01/31 00:08:49;;;;;;;6.07;1.23;;;17.70;1.00;;;;;;5015605;28;20057;-40
2023/01/31 00:11:18;;;;;;;2.53;0.98;;;17.70;1.00;;;;;;5015633;28;20078;-40
2023/01/31 00:13:46;;;;;;;4.18;0.70;;;17.60;1.00;;;;;;5015549;28;20561;-39
2023/01/31 00:16:14;;;;;;;3.72;1.00;;;17.60;1.00;;;;;;5015473;28;20049;-40
2023/01/31 00:18:41;;;;;;;6.07;1.25;;;17.60;1.00;;;;;;5015474;28;20041;-40
2023/01/31 00:21:14;;;;;;;3.13;1.20;;;17.50;1.00;;;;;;5015265;28;20497;-39
2023/01/31 00:23:42;;;;;;;4.43;0.80;;;17.50;1.00;;;;;;5034406;22;20045;-32
2023/01/31 00:26:15;;;;;;;5.47;1.00;;;17.40;1.00;;;;;;5034948;28;20116;-33
2023/01/31 00:28:43;;;;;;;4.40;1.52;;;17.40;1.00;;;;;;5035210;28;20313;-33
2023/01/31 00:31:11;;;;;;;3.65;0.60;;;17.40;1.00;;;;;;5034928;28;20048;-33
2023/01/31 00:33:40;;;;;;;5.32;1.35;;;17.30;1.00;;;;;;5034746;28;20412;-32
2023/01/31 00:36:19;;;;;;;3.83;1.05;;;17.30;1.00;;;;;;5034990;28;20041;-32
2023/01/31 00:38:51;;;;;;;6.97;1.15;;;17.20;1.00;;;;;;5034882;28;20048;-32
2023/01/31 00:41:19;;;;;;;2.17;0.65;;;17.20;1.00;;;;;;5034892;28;20115;-32
2023/01/31 00:43:45;;;;;;;3.83;1.45;;;17.20;1.00;;;;;;5034340;28;20057;-33
2023/01/31 00:46:12;;;;;;;4.57;1.00;;;17.20;1.00;;;;;;5034786;28;20049;-33
2023/01/31 00:48:39;;;;;;;2.55;1.10;;;17.10;1.00;;;;;;5034784;28;20400;-33
2023/01/31 00:51:06;;;;;;;2.38;0.93;;;17.10;1.00;;;;;;5034741;28;20037;-33
2023/01/31 00:53:33;;;;;;;4.13;0.82;;;17.10;1.00;;;;;;5034763;28;20076;-33
2023/01/31 00:56:09;;;;;;;3.67;1.02;;;17.10;1.00;;;;;;5033205;28;20046;-33
2023/01/31 00:58:38;;;;;;;5.85;1.10;;;17.00;1.00;;;;;;5033297;28;20405;-33
2023/01/31 01:01:08;;;;;;;5.07;0.85;;;17.00;1.00;;;;;;5033172;28;20145;-32
2023/01/31 01:03:35;;;;;;;5.45;1.52;;;16.90;1.00;;;;;;5034001;28;20037;-33
2023/01/31 01:06:03;;;;;;;2.22;0.68;;;16.90;1.00;;;;;;5034478;28;20041;-33
2023/01/31 01:08:30;;;;;;;8.52;1.50;;;16.90;1.00;;;;;;5034512;28;20044;-32
2023/01/31 01:11:05;;;;;;;4.38;1.02;;;16.80;1.00;;;;;;5032908;28;20136;-32
2023/01/31 01:13:33;;;;;;;2.22;0.60;;;16.80;1.00;;;;;;5033210;28;20053;-33
2023/01/31 01:16:09;;;;;;;3.78;1.42;;;16.80;1.00;;;;;;5034217;28;20512;-32
2023/01/31 01:18:38;;;;;;;7.57;1.30;;;16.80;1.00;;;;;;5032921;28;20055;-32
2023/01/31 01:21:25;;;;;;;3.80;1.45;;;16.70;1.00;;;;;;5033963;28;20453;-32
2023/01/31 01:23:54;;;;;;;3.83;0.95;;;16.70;1.00;;;;;;5033587;28;20095;-32
2023/01/31 01:26:27;;;;;;;3.10;1.35;;;16.70;1.00;;;;;;5034010;28;20049;-32
2023/01/31 01:28:55;;;;;;;2.92;0.82;;;16.70;1.00;;;;;;5034049;28;20501;-32
2023/01/31 01:31:28;;;;;;;5.57;1.30;;;16.60;1.00;;;;;;5033840;28;20064;-32
2023/01/31 01:33:59;;;;;;;6.50;1.40;;;16.60;1.00;;;;;;5033557;28;20041;-32
2023/01/31 01:36:26;;;;;;;3.75;0.90;;;16.60;1.00;;;;;;5032709;28;20041;-33
2023/01/31 01:38:53;;;;;;;8.07;1.23;;;16.60;1.00;;;;;;5033790;28;20060;-32
2023/01/31 01:41:22;;;;;;;4.88;1.10;;;16.50;1.00;;;;;;5033592;28;20053;-31
2023/01/31 01:43:56;;;;;;;5.72;1.20;;;16.50;1.00;;;;;;5032135;28;20081;-32
2023/01/31 01:46:31;;;;;;;6.80;1.45;;;16.50;1.00;;;;;;5033558;28;20124;-32
2023/01/31 01:49:16;;;;;;;4.93;1.23;;;16.40;1.00;;;;;;5033669;28;20461;-32
2023/01/31 01:51:44;;;;;;;4.35;1.60;;;16.50;1.00;;;;;;5032276;28;20132;-32
2023/01/31 01:54:19;;;;;;;6.75;1.40;;;16.40;1.00;;;;;;5033255;28;20476;-32
2023/01/31 01:56:50;;;;;;;5.88;1.27;;;16.40;1.00;;;;;;5033327;28;20079;-32
2023/01/31 01:59:24;;;;;;;3.22;1.05;;;16.40;1.00;;;;;;5033966;28;20402;-32
2023/01/31 02:01:53;;;;;;;6.22;1.40;;;16.40;1.00;;;;;;5032120;28;20046;-32
2023/01/31 02:04:24;;;;;;;5.32;1.25;;;16.30;1.00;;;;;;5033070;28;20056;-32
2023/01/31 02:06:52;;;;;;;4.90;1.50;;;16.30;1.00;;;;;;5033253;28;20045;-32
2023/01/31 02:09:31;;;;;;;4.82;1.60;;;16.30;1.00;;;;;;5018475;28;20053;-32
2023/01/31 02:11:58;;;;;;;2.55;1.10;;;16.30;1.00;;;;;;5015340;28;20088;-32
2023/01/31 02:14:26;;;;;;;3.80;0.90;;;16.30;1.00;;;;;;5015072;28;20057;-32
2023/01/31 02:16:53;;;;;;;6.32;1.08;;;16.20;1.00;;;;;;5015235;28;20508;-31
2023/01/31 02:19:44;;;;;;;7.88;1.80;;;16.20;1.00;;;;;;5015265;28;20049;-31
2023/01/31 02:22:29;;;;;;;5.30;0.88;;;16.20;1.00;;;;;;5032787;28;20132;-32
2023/01/31 02:25:14;;;;;;;5.00;1.30;;;16.20;1.00;;;;;;5031503;28;20225;-32
2023/01/31 02:27:44;;;;;;;6.85;1.42;;;16.10;1.00;;;;;;5015097;28;20048;-31
2023/01/31 02:30:24;;;;;;;6.28;1.20;;;16.10;1.00;;;;;;5015045;28;20041;-31
2023/01/31 02:33:04;;;;;;;6.68;1.33;;;16.10;1.00;;;;;;5014594;28;20099;-31
2023/01/31 02:35:50;;;;;;;5.05;1.38;;;16.10;1.00;;;;;;5015092;28;20115;-31
2023/01/31 02:38:29;;;;;;;6.57;1.75;;;16.10;1.00;;;;;;5014870;28;20049;-31
2023/01/31 02:41:21;;;;;;;4.88;1.08;;;16.00;1.00;;;;;;5014878;28;20049;-31
2023/01/31 02:47:07;;;;;;;6.25;2.00;;;16.00;1.00;;;;;;5014743;28;20041;-31
2023/01/31 02:49:49;;;;;;;6.35;1.15;;;16.00;1.00;;;;;;5014646;28;20045;-31
2023/01/31 02:52:35;;;;;;;4.78;1.20;;;16.00;1.00;;;;;;5032229;28;20034;-31
2023/01/31 02:57:59;;;;;;;6.90;2.00;;;15.90;1.00;;;;;;5014557;28;20049;-31
2023/01/31 03:00:30;;;;;;;6.82;1.75;;;15.90;1.00;;;;;;5014587;28;20136;-31
2023/01/31 03:02:57;;;;;;;8.80;1.27;;;15.90;1.00;;;;;;5014106;28;20470;-32
2023/01/31 03:05:24;;;;;;;6.30;1.73;;;15.90;1.00;;;;;;5014351;28;20060;-31
2023/01/31 03:07:55;;;;;;;6.70;1.52;;;15.90;1.00;;;;;;5014337;28;20053;-31
2023/01/31 03:10:35;;;;;;;6.03;1.25;;;15.90;1.00;;;;;;5014409;28;20041;-31
2023/01/31 03:13:34;;;;;;;6.50;1.23;;;15.80;1.00;;;;;;5013953;28;20149;-31
2023/01/31 03:19:33;;;;;;;4.13;1.05;;;15.80;1.00;;;;;;5014331;28;20083;-31
2023/01/31 03:22:25;;;;;;;8.25;1.00;;;15.80;1.00;;;;;;5014065;28;20037;-31
2023/01/31 03:24:53;;;;;;;7.15;2.28;;;15.80;1.00;;;;;;5031543;28;20052;-31
2023/01/31 03:27:20;;;;;;;6.95;1.77;;;15.70;1.00;;;;;;5014169;28;20042;-31
2023/01/31 03:29:57;;;;;;;6.47;1.02;;;15.70;1.00;;;;;;5014157;28;20052;-31
2023/01/31 03:32:33;;;;;;;7.72;2.22;;;15.70;1.00;;;;;;5013839;28;20071;-31
2023/01/31 03:35:01;;;;;;;9.05;2.30;;;15.70;1.00;;;;;;5031661;28;20065;-31
2023/01/31 03:37:43;;;;;;;5.32;1.42;;;15.70;1.00;;;;;;5031390;28;20048;-36
2023/01/31 03:40:23;;;;;;;4.70;1.25;;;15.70;1.00;;;;;;5014110;28;20148;-36
2023/01/31 03:43:21;;;;;;;3.78;1.30;;;15.60;1.00;;;;;;5031235;28;20048;-33
2023/01/31 03:45:57;;;;;;;3.03;1.15;;;15.60;1.00;;;;;;5031867;28;20068;-34
2023/01/31 03:48:32;;;;;;;2.67;1.10;;;15.60;1.00;;;;;;5031723;28;20051;-35
2023/01/31 03:51:03;;;;;;;6.07;1.30;;;15.60;1.00;;;;;;5013962;28;20367;-36
2023/01/31 03:53:52;;;;;;;8.60;1.60;;;15.60;1.00;;;;;;5013428;28;20053;-33
2023/01/31 03:56:34;;;;;;;6.32;1.35;;;15.60;1.00;;;;;;5013869;28;20452;-34
2023/01/31 03:59:07;;;;;;;6.28;1.63;;;15.60;1.00;;;;;;5013806;28;20053;-38
2023/01/31 04:01:39;;;;;;;6.22;1.70;;;15.60;1.00;;;;;;5013958;28;20048;-39
2023/01/31 04:04:08;;;;;;;6.47;1.43;;;15.50;1.00;;;;;;5013414;28;20049;-35
2023/01/31 04:06:36;;;;;;;3.55;1.38;;;15.50;1.00;;;;;;5013696;28;20328;-33
2023/01/31 04:09:05;;;;;;;8.90;1.63;;;15.50;1.00;;;;;;5013685;28;20051;-33
2023/01/31 04:11:37;;;;;;;6.57;1.73;;;15.50;1.00;;;;;;5031526;28;20493;-35
2023/01/31 04:14:04;;;;;;;8.50;1.80;;;15.50;1.00;;;;;;5030962;28;20049;-35
2023/01/31 04:16:31;;;;;;;5.97;2.08;;;15.50;1.00;;;;;;5031673;28;20374;-37
2023/01/31 04:18:58;;;;;;;5.20;1.83;;;15.50;1.00;;;;;;5031449;28;20124;-36
2023/01/31 04:21:25;;;;;;;6.43;1.60;;;15.40;1.00;;;;;;5031431;28;20524;-37
2023/01/31 04:23:52;;;;;;;6.35;1.42;;;15.40;1.00;;;;;;5030849;28;20390;-35
2023/01/31 04:26:18;;;;;;;4.85;1.20;;;15.40;1.00;;;;;;5031440;28;20048;-35
2023/01/31 04:28:45;;;;;;;8.50;2.35;;;15.40;1.00;;;;;;5031136;28;20034;-34
2023/01/31 04:31:13;;;;;;;6.28;1.85;;;15.40;1.00;;;;;;5031422;28;20488;-36
2023/01/31 04:33:40;;;;;;;5.55;1.38;;;15.40;1.00;;;;;;5030858;28;20485;-34
2023/01/31 04:36:07;;;;;;;4.90;1.27;;;15.40;1.00;;;;;;5031207;28;20120;-32
2023/01/31 04:38:34;;;;;;;4.80;1.55;;;15.40;1.00;;;;;;5031202;28;20136;-35
2023/01/31 04:41:01;;;;;;;6.85;1.77;;;15.30;1.00;;;;;;5031237;28;20119;-37
2023/01/31 04:43:28;;;;;;;5.35;1.25;;;15.30;1.00;;;;;;5030625;28;20052;-33
2023/01/31 04:45:54;;;;;;;4.88;1.45;;;15.30;1.00;;;;;;5031216;28;20134;-35
2023/01/31 04:48:21;;;;;;;4.05;1.05;;;15.30;1.00;;;;;;5032445;28;20037;-37
2023/01/31 04:50:48;;;;;;;5.10;1.38;;;15.30;1.00;;;;;;5034641;28;20052;-34
2023/01/31 04:53:15;;;;;;;8.63;1.35;;;15.30;1.00;;;;;;5034313;28;20411;-34
2023/01/31 04:55:41;;;;;;;7.47;1.33;;;15.30;1.00;;;;;;5034578;28;20059;-33
2023/01/31 04:58:08;;;;;;;3.25;1.35;;;15.30;1.00;;;;;;5034532;28;20552;-35
2023/01/31 05:00:35;;;;;;;6.45;1.73;;;15.20;1.00;;;;;;5034477;28;20049;-33
2023/01/31 05:03:02;;;;;;;8.52;1.88;;;15.20;1.00;;;;;;5033876;28;20048;-34
2023/01/31 05:05:29;;;;;;;5.85;1.25;;;15.20;1.00;;;;;;5034363;28;20490;-37
2023/01/31 05:07:56;;;;;;;3.10;1.65;;;15.20;1.00;;;;;;5034356;28;20057;-37
2023/01/31 05:10:23;;;;;;;11.18;2.45;;;15.20;1.00;;;;;;5034192;28;20244;-35
2023/01/31 05:12:50;;;;;;;5.80;1.77;;;15.20;1.00;;;;;;5019267;28;20528;-35
2023/01/31 05:15:17;;;;;;;6.05;1.75;;;15.20;1.00;;;;;;5034053;28;20057;-38
2023/01/31 05:17:44;;;;;;;9.27;1.92;;;15.20;1.00;;;;;;5034133;28;20052;-34
2023/01/31 05:20:11;;;;;;;11.15;1.80;;;15.20;1.00;;;;;;5033877;28;20041;-34
2023/01/31 05:22:37;;;;;;;6.45;1.55;;;15.20;1.00;;;;;;5034213;28;20099;-35
2023/01/31 05:25:04;;;;;;;10.65;1.90;;;15.20;1.00;;;;;;5032157;28;20038;-36
2023/01/31 05:27:31;;;;;;;8.82;1.80;;;15.20;1.00;;;;;;5033373;28;20037;-36
2023/01/31 05:29:59;;;;;;;7.45;1.40;;;15.20;1.00;;;;;;5016236;28;20373;-34
2023/01/31 05:32:26;;;;;;;13.35;2.55;;;15.10;1.00;;;;;;5033789;28;20099;-33
2023/01/31 05:34:53;;;;;;;7.82;1.38;;;15.10;1.00;;;;;;5033646;28;20046;-35
2023/01/31 05:37:19;;;;;;;5.97;1.65;;;15.10;1.00;;;;;;5033796;28;20536;-36
2023/01/31 05:39:46;;;;;;;9.63;1.40;;;15.10;1.00;;;;;;5033722;28;20389;-39
2023/01/31 05:42:13;;;;;;;8.05;1.73;;;15.10;1.00;;;;;;5033503;28;20878;-38
2023/01/31 05:44:39;;;;;;;7.13;1.80;;;15.10;1.00;;;;;;5033491;28;20112;-35
2023/01/31 05:47:06;;;;;;;7.30;1.65;;;15.10;1.00;;;;;;5031859;28;20116;-38
2023/01/31 05:49:33;;;;;;;5.13;1.40;;;15.10;1.00;;;;;;5032220;28;20583;-37
2023/01/31 05:52:00;;;;;;;6.78;1.40;;;15.10;1.00;;;;;;5015410;28;20053;-36
2023/01/31 05:54:27;;;;;;;5.40;1.38;;;15.00;1.00;;;;;;5033174;28;20056;-37
2023/01/31 05:56:54;;;;;;;9.52;1.92;;;15.00;1.00;;;;;;5015813;28;20068;-37
2023/01/31 05:59:21;;;;;;;6.90;2.40;;;15.00;1.00;;;;;;5033137;28;20049;-35
2023/01/31 06:01:48;;;;;;;7.50;1.55;;;15.00;1.00;;;;;;5033352;28;20120;-34
2023/01/31 06:04:15;;;;;;;6.55;2.08;;;15.00;1.00;;;;;;5032881;28;20060;-37
2023/01/31 06:06:41;;;;;;;7.88;1.63;;;15.00;1.00;;;;;;5033107;28;20045;-34
2023/01/31 06:09:08;;;;;;;8.70;1.77;;;15.00;1.00;;;;;;5033182;28;20057;-35
2023/01/31 06:11:35;;;;;;;7.72;1.70;;;14.90;1.00;;;;;;5033299;28;20045;-39
2023/01/31 06:14:02;;;;;;;12.10;1.40;;;14.90;1.00;;;;;;5032783;28;20099;-35
2023/01/31 06:16:28;;;;;;;5.63;1.48;;;14.90;1.00;;;;;;5033085;28;20065;-34
2023/01/31 06:18:55;;;;;;;5.70;1.48;;;14.90;1.00;;;;;;5032949;28;20041;-33
2023/01/31 06:21:22;;;;;;;6.07;1.17;;;14.90;1.00;;;;;;5032901;28;20064;-35
2023/01/31 06:23:49;;;;;;;7.50;1.70;;;14.90;1.00;;;;;;5032357;28;20056;-40
2023/01/31 06:26:16;;;;;;;10.32;1.90;;;14.90;1.00;;;;;;5032865;28;20544;-33
2023/01/31 06:28:43;;;;;;;9.23;1.92;;;14.90;1.00;;;;;;5032991;28;20049;-36
2023/01/31 06:31:12;;;;;;;5.63;1.20;;;14.90;1.00;;;;;;5032746;28;20063;-37
2023/01/31 06:33:39;;;;;;;11.48;1.77;;;14.90;1.00;;;;;;5032298;28;20103;-33
2023/01/31 06:36:13;;;;;;;12.25;1.63;;;14.80;1.00;;;;;;5032746;28;20048;-36
2023/01/31 06:38:43;;;;;;;8.73;2.40;;;14.80;1.00;;;;;;5032667;28;20044;-36
2023/01/31 06:41:09;;;;;;;10.15;1.80;;;14.80;1.00;;;;;;5032473;28;20060;-34
2023/01/31 06:43:36;;;;;;;8.10;1.75;;;14.80;1.00;;;;;;5032059;28;20080;-37
2023/01/31 06:46:03;;;;;;;9.02;1.65;;;14.80;1.00;;;;;;5014950;28;20460;-34
2023/01/31 06:48:30;;;;;;;6.85;0.93;;;14.80;1.00;;;;;;5032281;28;20045;-33
2023/01/31 06:50:57;;;;;;;9.25;1.83;;;14.80;1.00;;;;;;5032432;28;20065;-37
2023/01/31 06:53:24;;;;;;;7.35;1.25;;;14.80;1.00;;;;;;5031962;28;20140;-35
2023/01/31 06:55:50;;;;;;;4.38;1.02;;;14.80;1.00;;;;;;5032273;28;20049;-35
2023/01/31 06:58:17;;;;;;;7.03;2.03;;;14.80;1.00;;;;;;5032208;28;20140;-36
2023/01/31 07:00:46;;;;;;;5.93;1.38;;;14.80;1.00;;;;;;5014950;28;20069;-33
2023/01/31 07:03:13;;;;;;;9.93;1.55;;;14.70;1.00;;;;;;5031653;28;20072;-34
2023/01/31 07:05:40;;;;;;;5.18;1.63;;;14.70;1.00;;;;;;5032139;28;20038;-33
2023/01/31 07:08:07;;;;;;;6.78;1.05;;;14.70;1.00;;;;;;5032130;28;20041;-37
2023/01/31 07:10:34;;;;;;;9.52;1.67;;;14.70;1.00;;;;;;5031438;28;20108;-35
2023/01/31 07:13:00;;;;;;;4.75;1.60;;;14.70;1.00;;;;;;5031676;28;20448;-36
2023/01/31 07:15:27;;;;;;;7.20;1.67;;;14.70;1.00;;;;;;5031965;28;20087;-32
2023/01/31 07:17:58;;;;;;;6.68;1.42;;;14.70;1.00;;;;;;5031927;28;20049;-32
2023/01/31 07:20:25;;;;;;;7.22;2.08;;;14.70;1.00;;;;;;5031986;28;20053;-34
2023/01/31 07:22:56;;;;;;;7.15;1.70;;;14.60;1.00;;;;;;5031473;28;20555;-33
2023/01/31 07:25:24;;;;;;;6.35;1.85;;;14.70;1.00;;;;;;5031883;28;20084;-33
2023/01/31 07:27:51;;;;;;;6.85;1.20;;;14.60;1.00;;;;;;5013976;28;20041;-39
2023/01/31 07:30:18;;;;;;;5.22;1.52;;;14.60;1.00;;;;;;5031682;28;20041;-36
2023/01/31 07:32:45;;;;;;;8.50;1.77;;;14.60;1.00;;;;;;5031189;28;20038;-38
2023/01/31 07:35:12;;;;;;;4.93;1.10;;;14.60;1.00;;;;;;5030957;28;20446;-33
2023/01/31 07:37:42;;;;;;;6.10;1.55;;;14.60;1.00;;;;;;5026191;28;20072;-34
2023/01/31 07:40:14;;;;;;;6.35;1.50;;;14.60;1.00;;;;;;5008445;28;20046;-36
2023/01/31 07:42:41;;;;;;;5.68;1.45;;;14.60;1.00;;;;;;5026027;28;20049;-38
2023/01/31 07:45:12;;;;;;;4.00;1.20;;;14.60;1.00;;;;;;5026394;28;20049;-38
2023/01/31 07:47:49;;;;;;;8.45;1.40;;;14.60;1.00;;;;;;5029231;28;20052;-37
2023/01/31 07:50:17;;;;;;;6.22;1.38;;;14.60;1.00;;;;;;5024690;28;20037;-38
2023/01/31 07:52:43;;;;;;;5.82;1.40;;;14.60;1.00;;;;;;5031021;28;20076;-36
2023/01/31 07:55:10;;;;;;;8.45;2.20;;;14.50;1.00;;;;;;5031359;28;20049;-37
2023/01/31 07:57:37;;;;;;;4.95;1.00;;;14.50;1.00;;;;;;5031565;28;20056;-35
2023/01/31 08:03:31;;;;;;;7.80;1.38;;;14.60;1.00;;;;;;5031602;28;20436;-36
2023/01/31 08:05:36;;;;;;;4.13;1.48;;;14.50;1.00;;;;;;5031365;28;20468;-34
2023/01/31 08:08:09;;;;;;;7.60;1.88;;;14.50;1.00;;;;;;5031391;28;20041;-38
2023/01/31 08:10:36;;;;;;;7.20;1.75;;;14.50;1.00;;;;;;5031464;28;20489;-37
2023/01/31 08:13:04;;;;;;;6.97;1.67;;;14.50;1.00;;;;;;5030950;28;20041;-36
2023/01/31 08:15:32;;;;;;;13.52;2.00;;;14.50;1.00;;;;;;5031923;28;20042;-35
2023/01/31 08:17:59;;;;;;;7.05;1.75;;;14.50;1.00;;;;;;5031303;28;20065;-35
2023/01/31 08:20:26;;;;;;;7.93;1.65;;;14.50;1.00;;;;;;5031335;28;20079;-37
2023/01/31 08:22:53;;;;;;;9.65;1.58;;;14.50;1.00;;;;;;5033121;28;20092;-37
2023/01/31 08:25:20;;;;;;;4.65;1.20;;;14.50;1.00;;;;;;5035124;28;20489;-40
2023/01/31 08:27:47;;;;;;;7.43;2.08;;;14.40;1.00;;;;;;5035048;28;20111;-36
2023/01/31 08:30:14;;;;;;;6.18;1.42;;;14.50;1.00;;;;;;5035011;28;20049;-35
2023/01/31 08:32:41;;;;;;;9.30;2.58;;;14.50;1.00;;;;;;5034479;28;20045;-39
2023/01/31 08:35:08;;;;;;;8.48;1.75;;;14.40;1.00;;;;;;5034863;28;20540;-35
2023/01/31 08:37:35;;;;;;;9.85;1.80;;;14.40;1.00;;;;;;5017217;28;20037;-37
2023/01/31 08:40:02;;;;;;;11.77;1.90;;;14.40;1.00;;;;;;5034842;28;20124;-38
2023/01/31 08:42:29;;;;;;;8.52;1.80;;;14.40;1.00;;;;;;5017216;28;20050;-37
2023/01/31 08:44:56;;;;;;;8.07;2.67;;;14.40;1.00;;;;;;5034361;28;20034;-36
2023/01/31 08:47:23;;;;;;;7.00;1.60;;;14.40;1.00;;;;;;5034652;28;20053;-38
2023/01/31 08:49:49;;;;;;;9.20;1.45;;;14.40;1.00;;;;;;5034635;28;20046;-35
2023/01/31 08:52:16;;;;;;;7.43;1.45;;;14.40;1.00;;;;;;5034430;28;20099;-37
2023/01/31 08:54:43;;;;;;;7.78;1.88;;;14.40;1.00;;;;;;5034256;28;20052;-37
2023/01/31 08:57:10;;;;;;;5.75;1.50;;;14.40;1.00;;;;;;5034537;28;20042;-39
2023/01/31 08:59:37;;;;;;;9.43;2.67;;;14.40;1.00;;;;;;5034443;28;20056;-33
2023/01/31 09:02:04;;;;;;;6.75;1.33;;;14.40;1.00;;;;;;5034412;28;20049;-38
2023/01/31 09:04:31;;;;;;;11.32;2.20;;;14.40;1.00;;;;;;5033853;28;20053;-38
2023/01/31 09:06:58;;;;;;;5.72;1.48;;;14.40;1.00;;;;;;5034401;28;20121;-37
2023/01/31 09:09:24;;;;;;;6.47;1.30;;;14.40;1.00;;;;;;5034362;28;20041;-37
2023/01/31 09:11:51;;;;;;;4.57;1.30;;;14.40;1.00;;;;;;5034213;28;20124;-33
2023/01/31 09:14:18;;;;;;;9.15;2.40;;;14.40;1.00;;;;;;5033671;28;20053;-34
2023/01/31 09:16:48;;;;;;;6.68;1.52;;;14.40;1.00;;;;;;5034035;28;20069;-39
2023/01/31 09:19:15;;;;;;;5.55;1.05;;;14.40;1.00;;;;;;5034154;28;20073;-35
2023/01/31 09:21:41;;;;;;;7.10;1.92;;;14.30;1.00;;;;;;5034024;28;20042;-37
2023/01/31 09:24:10;;;;;;;8.45;1.70;;;14.30;1.00;;;;;;5033482;28;20079;-36
2023/01/31 09:26:37;;;;;;;7.78;1.83;;;14.30;1.00;;;;;;5033808;28;20044;-34
2023/01/31 09:29:04;;;;;;;5.30;1.80;;;14.40;1.00;;;;;;5033891;28;20042;-37
2023/01/31 09:31:31;;;;;;;7.47;2.17;;;14.30;1.00;;;;;;5033805;28;20034;-37
2023/01/31 09:33:58;;;;;;;5.03;1.58;;;14.30;1.00;;;;;;5015028;28;20394;-37
2023/01/31 09:36:25;;;;;;;9.30;2.15;;;14.30;1.00;;;;;;5033728;28;20441;-39
2023/01/31 09:38:55;;;;;;;4.68;1.67;;;14.30;1.00;;;;;;5015974;28;20041;-38
2023/01/31 09:41:43;;;;;;;8.60;2.67;;;14.30;1.00;;;;;;5033615;28;20045;-36
2023/01/31 09:44:13;;;;;;;3.30;1.40;;;14.30;1.00;;;;;;5033124;28;20041;-38
2023/01/31 09:46:45;;;;;;;7.35;2.03;;;14.30;1.00;;;;;;5033609;28;20033;-37
2023/01/31 09:49:19;;;;;;;8.95;1.50;;;14.30;1.00;;;;;;5033567;28;20052;-38
2023/01/31 09:51:47;;;;;;;;;;;14.30;1.00;;;;;;5033782;28;20045;-39
2023/01/31 09:54:20;;;;;;;5.03;0.98;;;14.30;1.00;;;;;;5033246;28;20309;-37
2023/01/31 09:57:26;;;;;;;3.83;1.33;;;14.30;1.00;;;;;;5033429;28;20045;-39
2023/01/31 10:00:14;;;;;;;6.18;1.27;;;14.30;1.00;;;;;;5033207;28;20037;-37
2023/01/31 10:03:19;;;;;;;4.45;1.42;;;14.20;1.00;;;;;;5032993;28;20413;-34
2023/01/31 10:05:59;;;;;;;6.38;1.70;;;14.30;1.00;;;;;;5015579;28;20128;-38
2023/01/31 10:08:39;;;;;;;7.38;1.30;;;14.20;1.00;;;;;;5033117;28;20404;-37
2023/01/31 10:11:14;;;;;;;8.63;1.75;;;14.20;1.00;;;;;;5033173;28;20484;-35
2023/01/31 10:13:54;;;;;;;7.93;1.60;;;14.20;1.00;;;;;;5032746;28;20508;-36
2023/01/31 10:16:32;;;;;;;4.82;1.55;;;14.20;1.00;;;;;;5032995;28;20042;-35
2023/01/31 10:19:06;;;;;;;14.25;2.20;;;14.20;1.00;;;;;;5032996;28;20107;-37
2023/01/31 10:21:46;;;;;;;7.75;1.83;;;14.20;1.00;;;;;;5032925;28;20045;-33
2023/01/31 10:24:30;;;;;;;8.20;2.20;;;14.30;1.00;;;;;;5014775;28;20037;-37
2023/01/31 10:27:42;;;;;;;12.52;2.38;;;14.20;1.00;;;;;;5032746;28;20045;-38
2023/01/31 10:30:24;;;;;;;6.45;1.52;;;14.20;1.00;;;;;;5029937;28;20056;-34
2023/01/31 10:33:02;;;;;;;4.55;1.90;;;14.20;1.00;;;;;;5032316;28;20037;-37
2023/01/31 10:35:38;;;;;;;7.63;1.42;;;14.20;1.00;;;;;;5032578;28;20056;-39
2023/01/31 10:38:24;;;;;;;8.57;1.42;;;14.20;1.00;;;;;;5032791;28;20052;-37
2023/01/31 10:41:03;;;;;;;4.38;1.70;;;14.20;1.00;;;;;;5032508;28;20048;-33
2023/01/31 10:43:43;;;;;;;9.88;1.95;;;14.30;1.00;;;;;;5032104;28;20049;-37
2023/01/31 10:46:11;;;;;;;6.25;1.60;;;14.30;1.00;;;;;;5031600;28;20378;-34
2023/01/31 10:48:40;;;;;;;7.75;1.60;;;14.30;1.00;;;;;;5032506;28;20072;-34
2023/01/31 10:51:42;;;;;;;6.60;2.15;;;14.30;1.00;;;;;;5032349;28;20551;-35
2023/01/31 10:54:19;;;;;;;6.10;1.50;;;14.20;1.00;;;;;;5032425;28;20129;-33
2023/01/31 10:56:48;;;;;;;5.65;0.95;;;14.20;1.00;;;;;;5032320;28;20128;-34
2023/01/31 10:59:28;;;;;;;4.68;1.60;;;14.30;1.00;;;;;;5032200;28;20489;-34
2023/01/31 11:01:55;;;;;;;6.28;1.35;;;14.30;1.00;;;;;;5032251;28;20120;-35
2023/01/31 11:04:30;;;;;;;8.07;1.33;;;14.30;1.00;;;;;;5031807;28;20045;-33
2023/01/31 11:06:59;;;;;;;5.93;1.05;;;14.30;1.00;;;;;;5032045;28;20033;-36
2023/01/31 11:09:48;;;;;;;7.00;1.50;;;14.30;1.00;;;;;;5032309;28;20413;-36
2023/01/31 11:12:15;;;;;;;6.68;1.85;;;14.30;1.00;;;;;;5031919;28;20116;-38
2023/01/31 11:14:42;;;;;;;8.57;2.13;;;14.30;1.00;;;;;;5031818;28;20444;-34
2023/01/31 11:17:21;;;;;;;8.20;1.90;;;14.40;1.00;;;;;;5014194;28;20045;-36
2023/01/31 11:19:51;;;;;;;6.05;1.45;;;14.40;1.00;;;;;;5032002;28;20512;-37
2023/01/31 11:22:25;;;;;;;9.93;1.60;;;14.40;1.00;;;;;;5031844;28;20065;-36
2023/01/31 11:24:54;;;;;;;6.20;1.70;;;14.40;1.00;;;;;;5031495;28;20473;-37
2023/01/31 11:27:42;;;;;;;4.55;0.98;;;14.40;1.00;;;;;;5031696;28;20049;-40
2023/01/31 11:30:26;;;;;;;4.70;1.08;;;14.40;1.00;;;;;;5031878;28;20070;-36
2023/01/31 11:32:54;;;;;;;6.30;0.93;;;14.50;1.00;;;;;;5013916;28;20099;-35
2023/01/31 11:35:30;;;;;;;6.85;1.55;;;14.50;1.00;;;;;;5031761;28;20042;-36
2023/01/31 11:37:59;;;;;;;10.05;2.00;;;14.50;1.00;;;;;;5031706;28;20486;-36
2023/01/31 11:40:38;;;;;;;6.22;1.77;;;14.50;1.00;;;;;;5031757;28;20041;-34
2023/01/31 11:43:15;;;;;;;7.20;1.60;;;14.50;1.00;;;;;;5013530;28;20394;-35
2023/01/31 11:45:53;;;;;;;5.10;1.27;;;14.50;1.00;;;;;;5013890;28;20125;-35
2023/01/31 11:48:28;;;;;;;6.32;1.92;;;14.50;1.00;;;;;;5031469;28;20486;-35
2023/01/31 11:50:57;;;;;;;9.40;1.75;;;14.50;1.00;;;;;;5014084;28;20042;-35
2023/01/31 11:53:28;;;;;;;5.25;1.20;;;14.50;1.00;;;;;;5031188;28;20045;-35
2023/01/31 11:56:15;;;;;;;5.75;1.98;;;14.50;1.00;;;;;;5031585;28;20119;-35
2023/01/31 11:58:45;;;;;;;5.25;1.50;;;14.50;1.00;;;;;;5035168;28;20519;-36
2023/01/31 12:01:16;;;;;;;6.85;2.55;;;14.60;1.00;;;;;;5035613;28;20068;-35
2023/01/31 12:03:53;;;;;;;4.45;1.10;;;14.60;1.00;;;;;;5035295;28;20053;-35
2023/01/31 12:06:37;;;;;;;4.82;1.17;;;14.60;1.00;;;;;;5017661;28;20357;-36
2023/01/31 12:09:22;;;;;;;4.50;1.77;;;14.60;1.00;;;;;;5035426;28;20056;-34
2023/01/31 12:11:58;;;;;;;6.78;1.58;;;14.60;1.00;;;;;;5035581;28;20037;-36
2023/01/31 12:14:39;;;;;;;7.40;1.77;;;14.60;1.00;;;;;;5035181;28;20507;-36
2023/01/31 12:17:13;;;;;;;7.50;1.45;;;14.60;1.00;;;;;;5035283;28;20046;-39
2023/01/31 12:20:14;;;;;;;6.60;2.97;;;14.60;1.00;;;;;;5035236;28;20037;-37
2023/01/31 12:23:11;;;;;;;7.75;2.22;;;14.60;1.00;;;;;;5034739;28;20045;-37
2023/01/31 12:25:41;;;;;;;3.45;1.40;;;14.60;1.00;;;;;;5034993;28;20041;-38
2023/01/31 12:28:31;;;;;;;8.10;2.33;;;14.60;1.00;;;;;;5034932;28;20432;-35
2023/01/31 12:31:16;;;;;;;12.70;2.22;;;14.60;1.00;;;;;;5034837;28;20042;-36
2023/01/31 12:33:55;;;;;;;6.63;1.75;;;14.60;1.00;;;;;;5034694;28;20501;-33
2023/01/31 12:36:43;;;;;;;6.95;2.45;;;14.60;1.00;;;;;;5034781;28;20099;-37
2023/01/31 12:39:11;;;;;;;6.20;1.25;;;14.60;1.00;;;;;;5017149;28;20052;-37
2023/01/31 12:41:47;;;;;;;5.57;1.17;;;14.60;1.00;;;;;;5034730;28;20052;-35
2023/01/31 12:44:42;;;;;;;6.78;1.45;;;14.60;1.00;;;;;;5034332;28;20046;-36
2023/01/31 12:47:31;;;;;;;7.68;1.52;;;14.50;1.00;;;;;;5017159;28;20048;-38
2023/01/31 12:50:17;;;;;;;8.55;1.77;;;14.60;1.00;;;;;;5034537;28;20060;-36
2023/01/31 12:53:30;;;;;;;7.32;2.28;;;14.60;1.00;;;;;;5034270;28;20043;-39
2023/01/31 12:55:57;;;;;;;9.20;1.85;;;14.60;1.00;;;;;;5007686;28;20068;-35
2023/01/31 12:59:00;;;;;;;4.03;1.92;;;14.60;1.00;;;;;;5034437;28;20493;-35
2023/01/31 13:01:50;;;;;;;4.38;1.27;;;14.50;1.00;;;;;;5014898;28;20046;-39
2023/01/31 13:04:40;;;;;;;5.55;1.83;;;14.50;1.00;;;;;;5033966;28;20077;-37
2023/01/31 13:07:33;;;;;;;9.35;1.70;;;14.50;1.00;;;;;;5034301;28;20037;-39
2023/01/31 13:10:03;;;;;;;7.13;2.85;;;14.50;1.00;;;;;;5033231;28;20045;-33
2023/01/31 13:12:33;;;;;;;5.70;1.25;;;14.50;1.00;;;;;;5034251;28;20041;-40
2023/01/31 13:15:28;;;;;;;7.82;1.70;;;14.50;1.00;;;;;;5033994;28;20053;-37
2023/01/31 13:18:02;;;;;;;6.07;1.40;;;14.50;1.00;;;;;;5026748;28;20063;-35
2023/01/31 13:20:39;;;;;;;5.28;1.83;;;14.50;1.00;;;;;;5034132;28;20049;-33
2023/01/31 13:23:18;;;;;;;7.50;1.48;;;14.50;1.00;;;;;;5015922;28;20041;-36
2023/01/31 13:25:53;;;;;;;5.15;1.52;;;14.60;1.00;;;;;;5033937;28;20072;-38
2023/01/31 13:28:28;;;;;;;8.05;1.95;;;14.50;1.00;;;;;;5033808;28;20460;-37
2023/01/31 13:31:07;;;;;;;6.10;1.83;;;14.50;1.00;;;;;;5033830;28;20100;-37
2023/01/31 13:33:55;;;;;;;9.57;2.20;;;14.50;1.00;;;;;;5033316;28;20041;-40
2023/01/31 13:36:37;;;;;;;5.82;1.73;;;14.50;1.00;;;;;;5033579;28;20042;-38
2023/01/31 13:39:22;;;;;;;8.85;2.63;;;14.50;1.00;;;;;;5033611;28;20046;-40